| time (UTC) | temp F | wind direction | speed knots | gust knots | rain 1hr in | rain 24hr in | rain mn in | humidity % | barometer mb |
| 20260506050515 | 47 | 0.0 | 0.0 | 0.00 | 0.42 | 0.23 | |||
| 20260506044516 | 47 | 0.0 | 0.0 | 0.01 | 0.42 | 0.23 | |||
| 20260506043515 | 47 | 0.0 | 0.0 | 0.01 | 0.42 | 0.23 | |||
| 20260506042515 | 47 | 0.0 | 0.0 | 0.01 | 0.42 | 0.23 | |||
| 20260506041515 | 47 | 0.0 | 0.0 | 0.01 | 0.42 | 0.23 | |||
| 20260506040515 | 47 | 0.0 | 0.0 | 0.01 | 0.42 | 0.23 | |||
| 20260506035515 | 48 | 0.0 | 0.0 | 0.00 | 0.41 | 0.22 | |||
| 20260506034515 | 48 | 0.0 | 0.0 | 0.01 | 0.41 | 0.22 | |||
| 20260506033515 | 48 | 0.0 | 0.0 | 0.01 | 0.41 | 0.22 | |||
| 20260506032515 | 48 | 0.0 | 0.0 | 0.02 | 0.41 | 0.22 | |||
| 20260506031515 | 48 | 0.0 | 0.0 | 0.02 | 0.41 | 0.22 | |||
| 20260506030556 | 48 | 0.0 | 0.0 | 0.02 | 0.41 | 0.22 | |||
| 20260506025515 | 48 | 0.0 | 0.0 | 0.02 | 0.41 | 0.22 | |||
| 20260506024516 | 48 | 0.0 | 0.0 | 0.01 | 0.40 | 0.21 | |||
| 20260506023535 | 48 | 0.0 | 0.0 | 0.02 | 0.40 | 0.21 | |||
| 20260506022535 | 48 | 0.0 | 0.0 | 0.01 | 0.39 | 0.20 | |||
| 20260506021515 | 48 | 0.0 | 0.0 | 0.01 | 0.39 | 0.20 | |||
| 20260506020515 | 48 | 0.0 | 0.0 | 0.02 | 0.39 | 0.20 | |||
| 20260506015515 | 48 | 0.0 | 0.0 | 0.02 | 0.39 | 0.20 | |||
| 20260506014536 | 48 | 0.0 | 0.0 | 0.03 | 0.39 | 0.20 | |||
| 20260506013516 | 48 | 0.0 | 0.0 | 0.02 | 0.38 | 0.19 | |||
| 20260506012515 | 48 | 0.0 | 0.0 | 0.02 | 0.38 | 0.19 | |||
| 20260506011515 | 49 | 0.0 | 0.0 | 0.03 | 0.38 | 0.19 | |||
| 20260506010516 | 49 | 0.0 | 0.0 | 0.02 | 0.37 | 0.18 | |||
| 20260506005535 | 49 | 0.0 | 0.0 | 0.03 | 0.37 | 0.18 | |||
| 20260506004515 | 49 | 0.0 | 0.0 | 0.03 | 0.36 | 0.17 | |||
| 20260506003515 | 49 | 0.0 | 0.0 | 0.04 | 0.36 | 0.17 | |||
| 20260506002516 | 49 | 0.0 | 0.0 | 0.04 | 0.36 | 0.17 | |||
| 20260506001556 | 49 | 0.0 | 0.0 | 0.10 | 0.35 | 0.16 | |||
| 20260506000515 | 49 | 0.0 | 0.0 | 0.10 | 0.35 | 0.16 | |||
| 20260505235515 | 50 | 0.0 | 0.0 | 0.10 | 0.34 | 0.15 | |||
| 20260505234515 | 50 | 0.0 | 0.0 | 0.09 | 0.33 | 0.14 | |||
| 20260505233515 | 51 | 0.0 | 0.0 | 0.08 | 0.32 | 0.13 | |||
| 20260505232516 | 52 | 0.0 | 0.0 | 0.08 | 0.32 | 0.13 | |||
| 20260505231515 | 57 | 0.0 | 0.0 | 0.01 | 0.25 | 0.06 | |||
| 20260505230516 | 58 | 0.0 | 0.0 | 0.02 | 0.25 | 0.06 | |||
| 20260505225515 | 58 | 0.0 | 0.0 | 0.01 | 0.24 | 0.05 | |||
| 20260505224535 | 58 | 0.0 | 0.0 | 0.02 | 0.24 | 0.05 | |||
| 20260505223515 | 59 | 0.0 | 0.0 | 0.02 | 0.24 | 0.05 | |||
| 20260505222515 | 59 | 0.0 | 0.0 | 0.02 | 0.24 | 0.05 | |||
| 20260505221515 | 59 | 0.0 | 0.0 | 0.02 | 0.24 | 0.05 | |||
| 20260505220516 | 59 | 0.0 | 0.0 | 0.01 | 0.23 | 0.04 | |||
| 20260505215535 | 59 | 0.0 | 0.0 | 0.01 | 0.23 | 0.04 | |||
| 20260505214515 | 59 | 0.0 | 0.0 | 0.00 | 0.22 | 0.03 | |||
| 20260505213515 | 59 | 0.0 | 0.0 | 0.00 | 0.22 | 0.03 | |||
| 20260505212515 | 60 | 0.0 | 0.0 | 0.00 | 0.22 | 0.03 | |||
| 20260505211515 | 59 | 0.0 | 0.0 | 0.00 | 0.22 | 0.03 | |||
| 20260505210516 | 59 | 0.0 | 0.0 | 0.00 | 0.22 | 0.03 | |||
| 20260505205515 | 59 | 0.0 | 0.0 | 0.00 | 0.22 | 0.03 | |||
| 20260505204515 | 59 | 0.0 | 0.0 | 0.00 | 0.22 | 0.03 | |||
| 20260505203515 | 60 | 0.0 | 0.0 | 0.00 | 0.22 | 0.03 | |||
| 20260505202515 | 59 | 0.0 | 0.0 | 0.00 | 0.22 | 0.03 | |||
| 20260505201515 | 59 | 0.0 | 0.0 | 0.00 | 0.22 | 0.03 | |||
| 20260505200515 | 59 | 0.0 | 0.0 | 0.00 | 0.22 | 0.03 | |||
| 20260505195515 | 59 | 0.0 | 0.0 | 0.00 | 0.22 | 0.03 | |||
| 20260505194515 | 59 | 0.0 | 0.0 | 0.00 | 0.22 | 0.03 | |||
| 20260505193515 | 59 | 0.0 | 0.0 | 0.00 | 0.22 | 0.03 | |||
| 20260505192536 | 59 | 0.0 | 0.0 | 0.00 | 0.22 | 0.03 | |||
| 20260505191515 | 59 | 0.0 | 0.0 | 0.00 | 0.22 | 0.03 | |||
| 20260505190535 | 59 | 0.0 | 0.0 | 0.01 | 0.22 | 0.03 | |||
| 20260505185535 | 59 | 0.0 | 0.0 | 0.01 | 0.22 | 0.03 | |||
| 20260505184516 | 59 | 0.0 | 0.0 | 0.01 | 0.22 | 0.03 | |||
| 20260505183555 | 59 | 0.0 | 0.0 | 0.01 | 0.22 | 0.03 | |||
| 20260505182535 | 59 | 0.0 | 0.0 | 0.01 | 0.22 | 0.03 | |||
| 20260505181515 | 59 | 0.0 | 0.0 | 0.01 | 0.22 | 0.03 | |||
| 20260505180516 | 60 | 0.0 | 0.0 | 0.00 | 0.21 | 0.02 | |||
| 20260505175515 | 61 | 0.0 | 0.0 | 0.00 | 0.21 | 0.02 | |||
| 20260505174555 | 61 | 0.0 | 0.0 | 0.00 | 0.21 | 0.02 | |||
| 20260505173515 | 62 | 0.0 | 0.0 | 0.00 | 0.21 | 0.02 | |||
| 20260505172516 | 62 | 0.0 | 0.0 | 0.00 | 0.21 | 0.02 | |||
| 20260505171515 | 61 | 0.0 | 0.0 | 0.00 | 0.21 | 0.02 | |||
| 20260505170535 | 62 | 0.0 | 0.0 | 0.00 | 0.21 | 0.02 | |||
| 20260505165515 | 61 | 0.0 | 0.0 | 0.00 | 0.21 | 0.02 | |||
| 20260505164515 | 61 | 0.0 | 0.0 | 0.00 | 0.21 | 0.02 | |||
| 20260505163515 | 62 | 0.0 | 0.0 | 0.00 | 0.21 | 0.02 | |||
| 20260505162515 | 62 | 0.0 | 0.0 | 0.00 | 0.21 | 0.02 | |||
| 20260505161515 | 62 | 0.0 | 0.0 | 0.00 | 0.21 | 0.02 | |||
| 20260505160515 | 61 | 0.0 | 0.0 | 0.00 | 0.21 | 0.02 | |||
| 20260505152535 | 62 | 0.0 | 0.0 | 0.00 | 0.21 | 0.02 | |||
| 20260505151515 | 62 | 0.0 | 0.0 | 0.00 | 0.21 | 0.02 | |||
| 20260505150516 | 62 | 0.0 | 0.0 | 0.00 | 0.21 | 0.02 | |||
| 20260505140515 | 61 | 0.0 | 0.0 | 0.00 | 0.21 | 0.02 | |||
| 20260505124515 | 57 | 0.0 | 0.0 | 0.00 | 0.21 | 0.02 | |||
| 20260505123535 | 58 | 0.0 | 0.0 | 0.00 | 0.21 | 0.02 | |||
| 20260505122516 | 56 | 0.0 | 0.0 | 0.00 | 0.21 | 0.02 | |||
| 20260505121515 | 56 | 0.0 | 0.0 | 0.00 | 0.21 | 0.02 | |||
| 20260505120515 | 56 | 0.0 | 0.0 | 0.00 | 0.21 | 0.02 | |||
| 20260505115535 | 55 | 0.0 | 0.0 | 0.00 | 0.21 | 0.02 | |||
| 20260505114515 | 55 | 0.0 | 0.0 | 0.00 | 0.21 | 0.02 | |||
| 20260505113515 | 55 | 0.0 | 0.0 | 0.00 | 0.21 | 0.02 | |||
| 20260505112535 | 55 | 0.0 | 0.0 | 0.00 | 0.21 | 0.02 | |||
| 20260505111515 | 55 | 0.0 | 0.0 | 0.00 | 0.21 | 0.02 | |||
| 20260505110535 | 55 | 0.0 | 0.0 | 0.00 | 0.21 | 0.02 | |||
| 20260505101515 | 54 | 0.0 | 0.0 | 0.00 | 0.21 | 0.02 | |||
| 20260505100515 | 54 | 0.0 | 0.0 | 0.01 | 0.21 | 0.02 | |||
| 20260505095535 | 54 | 0.0 | 0.0 | 0.02 | 0.21 | 0.02 | |||
| 20260505094516 | 54 | 0.0 | 0.0 | 0.05 | 0.21 | 0.02 | |||
| 20260505093515 | 54 | 0.0 | 0.0 | 0.07 | 0.21 | 0.02 | |||
| 20260505092535 | 54 | 0.0 | 0.0 | 0.08 | 0.21 | 0.02 | |||
| 20260505091515 | 54 | 0.0 | 0.0 | 0.10 | 0.21 | 0.02 | |||
| 20260505090515 | 54 | 0.0 | 0.0 | 0.11 | 0.20 | 0.01 | |||
| 20260505085515 | 55 | 0.0 | 0.0 | 0.16 | 0.19 | 0.19 | |||
| 20260505083515 | 56 | 0.0 | 0.0 | 0.11 | 0.14 | 0.14 | |||
| 20260505082515 | 56 | 0.0 | 0.0 | 0.10 | 0.13 | 0.13 | |||
| 20260505081515 | 56 | 0.0 | 0.0 | 0.09 | 0.11 | 0.11 | |||
| 20260505080515 | 56 | 0.0 | 0.0 | 0.09 | 0.09 | 0.09 | |||
| 20260505075515 | 57 | 0.0 | 0.0 | 0.03 | 0.03 | 0.03 | |||
| 20260505074515 | 57 | 0.0 | 0.0 | 0.03 | 0.03 | 0.03 | |||
| 20260505073515 | 57 | 0.0 | 0.0 | 0.03 | 0.03 | 0.03 | |||
| 20260505072516 | 57 | 0.0 | 0.0 | 0.03 | 0.03 | 0.03 | |||
| 20260505071515 | 59 | 0.0 | 0.0 | 0.02 | 0.02 | 0.02 | |||
| 20260505070515 | 62 | 0.0 | 0.0 | 0.00 | 0.00 | 0.00 | |||
| 20260505065515 | 62 | 0.0 | 0.0 | 0.00 | 0.00 | 0.00 | |||
| 20260505064515 | 62 | 0.0 | 0.0 | 0.00 | 0.00 | 0.00 | |||
| 20260505063515 | 63 | 0.0 | 0.0 | 0.00 | 0.00 | 0.00 | |||
| 20260505062516 | 64 | 0.0 | 0.0 | 0.00 | 0.00 | 0.00 | |||
| 20260505061515 | 65 | 0.0 | 0.0 | 0.00 | 0.00 | 0.00 | |||
| 20260505060535 | 65 | 0.0 | 0.0 | 0.00 | 0.00 | 0.00 |